Time,TemperatureF,DewpointF,PressureIn,WindDirection,WindDirectionDegrees,WindSpeedMPH,WindSpeedGustMPH,Humidity,HourlyPrecipIn,Conditions,Clouds,dailyrainin,SolarRadiationWatts/m^2,SoftwareType,DateUTC
2013-09-26 00:01:00,60.1,59.2,29.92,NW,313,0.0,0.0,97,0.00,,,0.01,0.0,meteohub,2013-09-26 04:01:00,
2013-09-26 00:06:00,60.1,59.2,29.92,NW,313,0.0,0.0,97,0.00,,,0.00,0.0,meteohub,2013-09-26 04:06:00,
2013-09-26 00:11:00,60.1,59.2,29.92,NW,313,0.0,0.0,97,0.00,,,0.00,0.0,meteohub,2013-09-26 04:11:00,
2013-09-26 00:16:00,60.1,59.2,29.92,NW,313,0.0,0.0,97,0.00,,,0.00,0.0,meteohub,2013-09-26 04:16:00,
2013-09-26 00:21:00,60.1,59.2,29.92,NW,313,0.0,0.0,97,0.00,,,0.00,0.0,meteohub,2013-09-26 04:21:00,
2013-09-26 00:26:00,60.1,59.2,29.92,NW,313,0.0,0.0,97,0.00,,,0.00,0.0,meteohub,2013-09-26 04:26:00,
2013-09-26 00:31:00,59.9,59.0,29.92,NW,313,0.0,0.0,97,0.00,,,0.00,0.0,meteohub,2013-09-26 04:31:00,
2013-09-26 00:36:00,59.7,58.8,29.92,NW,313,0.0,0.0,97,0.00,,,0.00,0.0,meteohub,2013-09-26 04:36:00,
2013-09-26 00:41:00,59.7,58.8,29.92,NW,313,0.0,0.0,97,0.00,,,0.00,0.0,meteohub,2013-09-26 04:41:00,
2013-09-26 00:46:00,59.7,58.8,29.92,NW,313,0.0,0.0,97,0.00,,,0.00,0.0,meteohub,2013-09-26 04:46:00,
2013-09-26 00:51:00,59.7,58.8,29.91,NW,313,0.0,0.0,97,0.00,,,0.00,0.0,meteohub,2013-09-26 04:51:00,
2013-09-26 00:56:00,59.5,58.6,29.91,NW,313,0.0,0.0,97,0.00,,,0.00,0.0,meteohub,2013-09-26 04:56:00,
2013-09-26 01:01:00,59.5,58.6,29.91,NW,313,0.0,0.0,97,0.00,,,0.00,0.0,meteohub,2013-09-26 05:01:00,
2013-09-26 01:06:00,59.5,58.6,29.91,NW,313,0.0,0.0,97,0.00,,,0.00,0.0,meteohub,2013-09-26 05:06:00,
2013-09-26 01:11:00,59.5,58.6,29.91,NW,313,0.0,0.0,97,0.00,,,0.00,0.0,meteohub,2013-09-26 05:11:00,
2013-09-26 01:16:00,59.5,58.6,29.91,NW,313,0.0,0.0,97,0.00,,,0.00,0.0,meteohub,2013-09-26 05:16:00,
2013-09-26 01:21:00,59.5,58.6,29.91,NW,313,0.0,0.0,97,0.00,,,0.00,0.0,meteohub,2013-09-26 05:21:00,
2013-09-26 01:26:00,59.4,58.5,29.91,NW,313,0.0,0.0,97,0.00,,,0.00,0.0,meteohub,2013-09-26 05:26:00,
2013-09-26 01:31:00,59.4,58.5,29.91,NW,313,0.0,0.0,97,0.00,,,0.00,0.0,meteohub,2013-09-26 05:31:00,
2013-09-26 01:36:00,59.2,58.3,29.91,NW,313,0.0,0.0,97,0.00,,,0.00,0.0,meteohub,2013-09-26 05:36:00,
2013-09-26 01:41:00,59.0,58.1,29.91,NW,313,0.0,0.0,97,0.00,,,0.00,0.0,meteohub,2013-09-26 05:41:00,
2013-09-26 01:46:00,59.0,58.1,29.92,NW,313,0.0,0.0,97,0.00,,,0.00,0.0,meteohub,2013-09-26 05:46:00,
2013-09-26 01:51:00,59.0,58.1,29.91,NW,313,0.0,0.0,97,0.00,,,0.00,0.0,meteohub,2013-09-26 05:51:00,
2013-09-26 01:56:00,58.6,57.7,29.91,NW,313,0.0,0.0,97,0.00,,,0.00,0.0,meteohub,2013-09-26 05:56:00,
2013-09-26 02:01:00,58.6,57.7,29.91,NW,313,0.0,0.0,97,0.00,,,0.00,0.0,meteohub,2013-09-26 06:01:00,
2013-09-26 02:07:00,58.6,57.7,29.91,NW,313,0.0,0.0,97,0.00,,,0.00,0.0,meteohub,2013-09-26 06:07:00,
2013-09-26 02:12:00,58.6,57.7,29.92,NW,313,0.0,0.0,97,0.00,,,0.00,0.0,meteohub,2013-09-26 06:12:00,
2013-09-26 02:17:00,58.6,57.7,29.92,NW,313,0.0,0.0,97,0.00,,,0.00,0.0,meteohub,2013-09-26 06:17:00,
2013-09-26 02:22:00,58.5,57.6,29.92,NW,313,0.0,0.0,97,0.00,,,0.00,0.0,meteohub,2013-09-26 06:22:00,
2013-09-26 02:27:00,58.5,57.6,29.91,NW,313,0.0,0.0,97,0.00,,,0.00,0.0,meteohub,2013-09-26 06:27:00,
2013-09-26 02:32:00,58.5,57.6,29.92,NW,313,0.0,0.0,97,0.00,,,0.00,0.0,meteohub,2013-09-26 06:32:00,
2013-09-26 02:37:00,58.5,57.6,29.92,NW,313,0.0,0.0,97,0.00,,,0.00,0.0,meteohub,2013-09-26 06:37:00,
2013-09-26 02:42:00,58.5,57.6,29.92,NW,313,0.0,0.0,97,0.00,,,0.00,0.0,meteohub,2013-09-26 06:42:00,
2013-09-26 02:47:00,58.5,57.6,29.91,NW,313,0.0,0.0,97,0.00,,,0.00,0.0,meteohub,2013-09-26 06:47:00,
2013-09-26 02:52:00,58.3,57.4,29.91,NW,313,0.0,0.0,97,0.00,,,0.00,0.0,meteohub,2013-09-26 06:52:00,
2013-09-26 02:57:00,58.3,57.4,29.91,NW,313,0.0,0.0,97,0.00,,,0.00,0.0,meteohub,2013-09-26 06:57:00,
2013-09-26 03:02:00,58.3,57.4,29.91,NW,313,0.0,0.0,97,0.00,,,0.00,0.0,meteohub,2013-09-26 07:02:00,
2013-09-26 03:07:00,58.3,57.4,29.91,NW,313,0.0,0.0,97,0.00,,,0.00,0.0,meteohub,2013-09-26 07:07:00,
2013-09-26 03:12:00,58.5,57.6,29.91,NW,313,0.0,0.0,97,0.00,,,0.00,0.0,meteohub,2013-09-26 07:12:00,
2013-09-26 03:17:00,58.5,57.6,29.91,NW,313,0.0,0.0,97,0.00,,,0.00,0.0,meteohub,2013-09-26 07:17:00,
2013-09-26 03:22:00,58.3,57.4,29.92,NW,313,0.0,1.0,97,0.00,,,0.00,0.0,meteohub,2013-09-26 07:22:00,
2013-09-26 03:27:00,58.3,57.4,29.92,NW,313,0.0,1.0,97,0.00,,,0.00,0.0,meteohub,2013-09-26 07:27:00,
2013-09-26 03:32:00,58.3,57.4,29.92,NW,313,0.0,1.0,97,0.00,,,0.00,0.0,meteohub,2013-09-26 07:32:00,
2013-09-26 03:37:00,58.3,57.4,29.91,NW,313,0.0,0.0,97,0.00,,,0.00,0.0,meteohub,2013-09-26 07:37:00,
2013-09-26 03:42:00,58.1,57.0,29.91,NW,313,0.0,0.0,96,0.00,,,0.00,0.0,meteohub,2013-09-26 07:42:00,
2013-09-26 03:47:00,57.9,56.8,29.91,NW,313,0.0,0.0,96,0.00,,,0.00,0.0,meteohub,2013-09-26 07:47:00,
2013-09-26 03:52:00,57.7,56.7,29.92,NW,313,0.0,0.0,96,0.00,,,0.00,0.0,meteohub,2013-09-26 07:52:00,
2013-09-26 03:57:00,57.6,56.5,29.91,NW,313,0.0,0.0,96,0.00,,,0.00,0.0,meteohub,2013-09-26 07:57:00,
2013-09-26 04:02:00,57.2,56.1,29.91,NW,313,0.0,0.0,96,0.00,,,0.00,0.0,meteohub,2013-09-26 08:02:00,
2013-09-26 04:07:00,56.8,55.8,29.91,NW,313,0.0,0.0,96,0.00,,,0.00,0.0,meteohub,2013-09-26 08:07:00,
2013-09-26 04:12:00,56.7,55.6,29.91,NW,313,0.0,0.0,96,0.00,,,0.00,0.0,meteohub,2013-09-26 08:12:00,
2013-09-26 04:17:00,56.5,55.6,29.91,NW,313,0.0,0.0,97,0.00,,,0.00,0.0,meteohub,2013-09-26 08:17:00,
2013-09-26 04:22:00,56.3,55.4,29.91,NW,313,0.0,0.0,97,0.00,,,0.00,0.0,meteohub,2013-09-26 08:22:00,
2013-09-26 04:27:00,56.1,55.2,29.91,NW,313,0.0,0.0,97,0.00,,,0.00,0.0,meteohub,2013-09-26 08:27:00,
2013-09-26 04:32:00,55.9,55.0,29.91,NW,313,0.0,0.0,97,0.00,,,0.00,0.0,meteohub,2013-09-26 08:32:00,
2013-09-26 04:37:00,55.6,54.7,29.91,NW,313,0.0,0.0,97,0.00,,,0.00,0.0,meteohub,2013-09-26 08:37:00,
2013-09-26 04:42:00,55.2,54.3,29.91,NW,313,0.0,0.0,97,0.00,,,0.00,0.0,meteohub,2013-09-26 08:42:00,
2013-09-26 04:47:00,55.0,54.1,29.91,NW,313,0.0,0.0,97,0.00,,,0.00,0.0,meteohub,2013-09-26 08:47:00,
2013-09-26 04:52:00,54.9,54.0,29.91,NW,313,0.0,0.0,97,0.00,,,0.00,0.0,meteohub,2013-09-26 08:52:00,
2013-09-26 04:57:00,54.7,53.8,29.91,NW,313,0.0,0.0,97,0.00,,,0.00,0.0,meteohub,2013-09-26 08:57:00,
2013-09-26 05:02:00,54.5,53.6,29.91,NW,313,0.0,0.0,97,0.00,,,0.00,0.0,meteohub,2013-09-26 09:02:00,
2013-09-26 05:07:00,54.5,53.6,29.91,NW,313,0.0,0.0,97,0.00,,,0.00,0.0,meteohub,2013-09-26 09:07:00,
2013-09-26 05:12:00,54.3,53.4,29.91,NW,313,0.0,0.0,97,0.00,,,0.00,0.0,meteohub,2013-09-26 09:12:00,
2013-09-26 05:17:00,54.3,53.4,29.91,NW,313,0.0,0.0,97,0.00,,,0.00,0.0,meteohub,2013-09-26 09:17:00,
2013-09-26 05:22:00,54.3,53.4,29.92,NW,313,0.0,0.0,97,0.00,,,0.00,0.0,meteohub,2013-09-26 09:22:00,
2013-09-26 05:27:00,54.3,53.4,29.92,NW,313,0.0,0.0,97,0.00,,,0.00,0.0,meteohub,2013-09-26 09:27:00,
2013-09-26 05:32:00,54.3,53.4,29.92,NW,313,0.0,0.0,97,0.00,,,0.00,0.0,meteohub,2013-09-26 09:32:00,
2013-09-26 05:37:00,54.3,53.4,29.92,NW,313,0.0,0.0,97,0.00,,,0.00,0.0,meteohub,2013-09-26 09:37:00,
2013-09-26 05:42:00,54.5,54.0,29.92,NW,313,0.0,0.0,98,0.00,,,0.00,0.0,meteohub,2013-09-26 09:42:00,
2013-09-26 05:47:00,54.5,54.0,29.92,NW,313,0.0,0.0,98,0.00,,,0.00,0.0,meteohub,2013-09-26 09:47:00,
2013-09-26 05:52:00,54.5,54.0,29.92,NW,313,0.0,0.0,98,0.00,,,0.00,0.0,meteohub,2013-09-26 09:52:00,
2013-09-26 05:57:00,54.7,54.1,29.92,NW,313,0.0,0.0,98,0.00,,,0.00,0.0,meteohub,2013-09-26 09:57:00,
2013-09-26 06:02:00,54.7,54.1,29.93,NW,313,0.0,0.0,98,0.00,,,0.00,0.0,meteohub,2013-09-26 10:02:00,
2013-09-26 06:07:00,54.7,54.1,29.93,NW,313,0.0,0.0,98,0.00,,,0.00,0.0,meteohub,2013-09-26 10:07:00,
2013-09-26 06:12:00,54.7,54.1,29.93,NW,313,0.0,0.0,98,0.00,,,0.00,0.0,meteohub,2013-09-26 10:12:00,
2013-09-26 06:17:00,54.9,54.3,29.93,NW,313,0.0,0.0,98,0.00,,,0.00,0.0,meteohub,2013-09-26 10:17:00,
2013-09-26 06:19:00,54.9,54.3,29.93,NW,313,0.0,0.0,98,0.00,,,0.00,0.0,meteohub,2013-09-26 10:19:00,
2013-09-26 06:22:00,54.9,54.3,29.94,NW,313,0.0,0.0,98,0.00,,,0.00,0.0,meteohub,2013-09-26 10:22:00,
2013-09-26 06:27:00,55.0,54.5,29.94,NW,313,0.0,0.0,98,0.00,,,0.00,0.0,meteohub,2013-09-26 10:27:00,
2013-09-26 06:32:00,55.0,54.5,29.94,NW,313,0.0,0.0,98,0.00,,,0.00,0.0,meteohub,2013-09-26 10:32:00,
2013-09-26 06:37:00,55.0,54.5,29.94,NW,313,0.0,0.0,98,0.00,,,0.00,0.0,meteohub,2013-09-26 10:37:00,
2013-09-26 06:42:00,55.0,54.5,29.94,NW,313,0.0,0.0,98,0.00,,,0.00,0.0,meteohub,2013-09-26 10:42:00,
2013-09-26 06:47:00,55.2,54.7,29.94,NW,313,0.0,0.0,98,0.00,,,0.00,0.0,meteohub,2013-09-26 10:47:00,
2013-09-26 06:52:00,55.2,54.7,29.94,NW,313,0.0,0.0,98,0.00,,,0.00,0.0,meteohub,2013-09-26 10:52:00,
2013-09-26 06:57:00,55.2,54.7,29.94,NW,313,0.0,0.0,98,0.00,,,0.00,0.0,meteohub,2013-09-26 10:57:00,
2013-09-26 07:02:00,55.2,54.7,29.94,NW,313,0.0,0.0,98,0.00,,,0.00,0.0,meteohub,2013-09-26 11:02:00,
2013-09-26 07:07:00,55.2,54.7,29.94,NW,313,0.0,0.0,98,0.00,,,0.00,0.0,meteohub,2013-09-26 11:07:00,
2013-09-26 07:12:00,55.2,54.7,29.95,NW,313,0.0,0.0,98,0.00,,,0.00,7.0,meteohub,2013-09-26 11:12:00,
2013-09-26 07:17:00,55.0,54.5,29.95,NW,313,0.0,0.0,98,0.00,,,0.00,9.0,meteohub,2013-09-26 11:17:00,
2013-09-26 07:22:00,55.2,54.7,29.95,NW,313,0.0,0.0,98,0.00,,,0.00,16.0,meteohub,2013-09-26 11:22:00,
2013-09-26 07:27:00,55.2,54.7,29.95,NW,313,0.0,0.0,98,0.00,,,0.00,18.0,meteohub,2013-09-26 11:27:00,
2013-09-26 07:32:00,55.6,55.0,29.95,NW,313,0.0,0.0,98,0.00,,,0.00,28.0,meteohub,2013-09-26 11:32:00,
2013-09-26 07:37:00,55.6,55.0,29.95,NW,313,0.0,0.0,98,0.00,,,0.00,37.0,meteohub,2013-09-26 11:37:00,
2013-09-26 07:42:00,55.8,55.2,29.96,NW,313,0.0,0.0,98,0.00,,,0.00,46.0,meteohub,2013-09-26 11:42:00,
2013-09-26 07:47:00,55.9,55.4,29.96,NW,313,0.0,0.0,98,0.00,,,0.00,53.0,meteohub,2013-09-26 11:47:00,
2013-09-26 07:52:00,56.5,55.9,29.96,NW,313,0.0,0.0,98,0.00,,,0.00,60.0,meteohub,2013-09-26 11:52:00,
2013-09-26 07:57:00,56.8,56.3,29.96,NW,313,0.0,0.0,98,0.00,,,0.00,70.0,meteohub,2013-09-26 11:57:00,
2013-09-26 08:02:00,57.0,56.5,29.96,NW,313,0.0,0.0,98,0.00,,,0.00,79.0,meteohub,2013-09-26 12:02:00,
2013-09-26 08:07:00,57.4,56.8,29.96,NW,313,0.0,0.0,98,0.00,,,0.00,84.0,meteohub,2013-09-26 12:07:00,
2013-09-26 08:12:00,57.6,57.0,29.96,NW,313,0.0,0.0,98,0.00,,,0.00,97.0,meteohub,2013-09-26 12:12:00,
2013-09-26 08:17:00,57.9,57.4,29.96,NW,313,0.0,0.0,98,0.00,,,0.00,113.0,meteohub,2013-09-26 12:17:00,
2013-09-26 08:22:00,58.5,57.9,29.96,NW,314,0.0,1.0,98,0.00,,,0.00,134.0,meteohub,2013-09-26 12:22:00,
2013-09-26 08:27:00,59.2,58.6,29.97,NNW,337,0.0,1.0,98,0.00,,,0.00,141.0,meteohub,2013-09-26 12:27:00,
2013-09-26 08:32:00,59.9,59.0,29.97,North,1,0.0,2.0,97,0.00,,,0.00,153.0,meteohub,2013-09-26 12:32:00,
2013-09-26 08:37:00,60.8,59.4,29.97,NE,38,0.0,2.0,95,0.00,,,0.00,151.0,meteohub,2013-09-26 12:37:00,
2013-09-26 08:42:00,61.3,59.5,29.97,ENE,58,0.0,2.0,94,0.00,,,0.00,160.0,meteohub,2013-09-26 12:42:00,
2013-09-26 08:47:00,61.7,59.9,29.97,ENE,58,0.0,2.0,94,0.00,,,0.00,171.0,meteohub,2013-09-26 12:47:00,
2013-09-26 08:52:00,62.4,60.4,29.98,ENE,58,0.0,2.0,93,0.00,,,0.00,167.0,meteohub,2013-09-26 12:52:00,
2013-09-26 08:57:00,62.8,60.4,29.98,ENE,58,0.0,2.0,92,0.00,,,0.00,186.0,meteohub,2013-09-26 12:57:00,
2013-09-26 09:02:00,63.5,61.2,29.98,East,88,2.0,2.0,92,0.00,,,0.00,223.0,meteohub,2013-09-26 13:02:00,
2013-09-26 09:07:00,64.0,61.0,29.98,ESE,110,1.0,2.0,90,0.00,,,0.00,446.0,meteohub,2013-09-26 13:07:00,
2013-09-26 09:12:00,64.9,61.9,29.98,ENE,63,0.0,2.0,90,0.00,,,0.00,536.0,meteohub,2013-09-26 13:12:00,
2013-09-26 09:17:00,65.8,62.2,29.98,North,2,3.0,3.0,88,0.00,,,0.00,410.0,meteohub,2013-09-26 13:17:00,
2013-09-26 09:22:00,66.6,62.6,29.98,NE,47,0.0,3.0,87,0.00,,,0.00,510.0,meteohub,2013-09-26 13:22:00,
2013-09-26 09:27:00,66.7,62.1,29.98,NE,46,0.0,3.0,85,0.00,,,0.00,485.0,meteohub,2013-09-26 13:27:00,
2013-09-26 09:32:00,67.3,62.6,29.99,ENE,77,0.0,3.0,85,0.00,,,0.00,499.0,meteohub,2013-09-26 13:32:00,
2013-09-26 09:37:00,67.8,62.1,29.99,NE,54,2.0,3.0,82,0.00,,,0.00,534.0,meteohub,2013-09-26 13:37:00,
2013-09-26 09:42:00,68.4,61.9,29.99,NE,49,1.0,4.0,80,0.00,,,0.00,577.0,meteohub,2013-09-26 13:42:00,
2013-09-26 09:47:00,67.6,61.5,29.99,ESE,117,1.0,5.0,81,0.00,,,0.00,287.0,meteohub,2013-09-26 13:47:00,
2013-09-26 09:52:00,67.5,62.1,29.99,NE,47,0.0,5.0,83,0.00,,,0.00,555.0,meteohub,2013-09-26 13:52:00,
2013-09-26 09:57:00,67.5,61.7,29.99,SE,124,1.0,5.0,82,0.00,,,0.00,475.0,meteohub,2013-09-26 13:57:00,
2013-09-26 10:02:00,66.7,60.8,29.99,ENE,61,0.0,4.0,81,0.00,,,0.00,334.0,meteohub,2013-09-26 14:02:00,
2013-09-26 10:07:00,67.3,61.5,29.99,ENE,70,1.0,4.0,82,0.00,,,0.00,388.0,meteohub,2013-09-26 14:07:00,
2013-09-26 10:12:00,67.8,61.7,29.99,NE,40,2.0,3.0,81,0.00,,,0.00,497.0,meteohub,2013-09-26 14:12:00,
2013-09-26 10:17:00,67.6,61.9,30.00,ESE,109,1.0,3.0,82,0.00,,,0.00,596.0,meteohub,2013-09-26 14:17:00,
2013-09-26 10:22:00,68.4,61.5,30.00,East,100,0.0,3.0,79,0.00,,,0.00,573.0,meteohub,2013-09-26 14:22:00,
2013-09-26 10:27:00,67.6,61.2,30.00,WNW,296,0.0,3.0,80,0.00,,,0.00,244.0,meteohub,2013-09-26 14:27:00,
2013-09-26 10:32:00,68.5,62.1,30.00,NNW,329,1.0,3.0,80,0.00,,,0.00,645.0,meteohub,2013-09-26 14:32:00,
2013-09-26 10:37:00,69.1,60.1,30.00,ENE,68,1.0,3.0,73,0.00,,,0.00,274.0,meteohub,2013-09-26 14:37:00,
2013-09-26 10:42:00,68.2,60.3,30.00,ENE,64,0.0,2.0,76,0.00,,,0.00,274.0,meteohub,2013-09-26 14:42:00,
2013-09-26 10:47:00,69.4,61.2,30.00,NE,50,2.0,3.0,75,0.00,,,0.00,826.0,meteohub,2013-09-26 14:47:00,
2013-09-26 10:52:00,70.7,61.2,30.00,ENE,76,0.0,4.0,72,0.00,,,0.00,480.0,meteohub,2013-09-26 14:52:00,
2013-09-26 10:57:00,70.0,61.7,30.00,ENE,70,0.0,4.0,75,0.00,,,0.00,352.0,meteohub,2013-09-26 14:57:00,
2013-09-26 11:02:00,69.1,60.4,30.00,South,189,0.0,4.0,74,0.00,,,0.00,216.0,meteohub,2013-09-26 15:02:00,
2013-09-26 11:07:00,68.4,60.8,30.00,NE,49,1.0,2.0,77,0.00,,,0.00,343.0,meteohub,2013-09-26 15:07:00,
2013-09-26 11:12:00,70.0,61.3,30.00,East,85,0.0,3.0,74,0.00,,,0.00,738.0,meteohub,2013-09-26 15:12:00,
2013-09-26 11:17:00,69.3,62.1,30.00,NNE,31,0.0,3.0,78,0.00,,,0.00,288.0,meteohub,2013-09-26 15:17:00,
2013-09-26 11:22:00,69.1,61.2,30.00,ENE,61,1.0,3.0,76,0.00,,,0.00,329.0,meteohub,2013-09-26 15:22:00,
2013-09-26 11:27:00,68.7,60.4,30.00,East,100,0.0,3.0,75,0.00,,,0.00,306.0,meteohub,2013-09-26 15:27:00,
2013-09-26 11:32:00,68.4,60.1,30.00,NE,34,1.0,2.0,75,0.00,,,0.00,712.0,meteohub,2013-09-26 15:32:00,
2013-09-26 11:37:00,69.4,60.8,30.00,SE,126,2.0,4.0,74,0.00,,,0.00,777.0,meteohub,2013-09-26 15:37:00,
2013-09-26 11:42:00,70.5,60.6,30.00,East,92,0.0,4.0,71,0.00,,,0.00,726.0,meteohub,2013-09-26 15:42:00,
2013-09-26 11:47:00,71.1,61.2,30.00,NNW,341,1.0,3.0,71,0.00,,,0.00,752.0,meteohub,2013-09-26 15:47:00,
2013-09-26 11:52:00,71.8,61.5,30.00,ENE,71,0.0,4.0,70,0.00,,,0.00,768.0,meteohub,2013-09-26 15:52:00,
2013-09-26 11:57:00,71.6,61.3,29.99,SSW,194,3.0,4.0,70,0.00,,,0.00,729.0,meteohub,2013-09-26 15:57:00,
2013-09-26 12:02:00,71.1,61.5,29.99,SSE,161,1.0,4.0,72,0.00,,,0.00,856.0,meteohub,2013-09-26 16:02:00,
2013-09-26 12:07:00,73.0,61.5,29.99,NE,46,0.0,4.0,67,0.00,,,0.00,877.0,meteohub,2013-09-26 16:07:00,
2013-09-26 12:12:00,72.7,61.2,29.99,SSE,158,1.0,4.0,67,0.00,,,0.00,301.0,meteohub,2013-09-26 16:12:00,
2013-09-26 12:17:00,72.1,61.3,29.99,East,90,1.0,4.0,69,0.00,,,0.00,158.0,meteohub,2013-09-26 16:17:00,
2013-09-26 12:22:00,72.7,62.8,29.99,SSW,194,3.0,4.0,71,0.00,,,0.00,828.0,meteohub,2013-09-26 16:22:00,
2013-09-26 12:27:00,73.2,59.4,29.99,ESE,111,1.0,3.0,62,0.00,,,0.00,798.0,meteohub,2013-09-26 16:27:00,
2013-09-26 12:32:00,73.6,61.5,29.99,SE,125,3.0,4.0,66,0.00,,,0.00,812.0,meteohub,2013-09-26 16:32:00,
2013-09-26 12:37:00,74.1,60.3,29.99,SSW,197,1.0,4.0,62,0.00,,,0.00,816.0,meteohub,2013-09-26 16:37:00,
2013-09-26 12:42:00,73.9,59.2,29.99,ENE,61,1.0,4.0,60,0.00,,,0.00,831.0,meteohub,2013-09-26 16:42:00,
2013-09-26 12:47:00,74.1,59.4,29.99,East,86,3.0,4.0,60,0.00,,,0.00,816.0,meteohub,2013-09-26 16:47:00,
2013-09-26 12:52:00,74.1,59.4,29.99,NNE,26,1.0,4.0,60,0.00,,,0.00,819.0,meteohub,2013-09-26 16:52:00,
2013-09-26 12:57:00,73.6,61.2,29.99,SE,142,0.0,4.0,65,0.00,,,0.00,882.0,meteohub,2013-09-26 16:57:00,
2013-09-26 13:02:00,74.7,62.6,29.99,North,10,0.0,3.0,66,0.00,,,0.00,865.0,meteohub,2013-09-26 17:02:00,
2013-09-26 13:07:00,73.8,59.5,29.99,SSE,152,1.0,3.0,61,0.00,,,0.00,271.0,meteohub,2013-09-26 17:07:00,
2013-09-26 13:12:00,72.9,58.6,29.99,SW,234,0.0,5.0,61,0.00,,,0.00,271.0,meteohub,2013-09-26 17:12:00,
2013-09-26 13:17:00,74.1,58.8,29.99,East,97,2.0,7.0,59,0.00,,,0.00,816.0,meteohub,2013-09-26 17:17:00,
2013-09-26 13:22:00,74.3,57.6,29.99,ENE,59,0.0,7.0,56,0.00,,,0.00,809.0,meteohub,2013-09-26 17:22:00,
2013-09-26 13:27:00,74.5,58.3,29.99,NNE,32,0.0,7.0,57,0.00,,,0.00,793.0,meteohub,2013-09-26 17:27:00,
2013-09-26 13:32:00,73.9,57.7,29.98,ENE,60,0.0,5.0,57,0.00,,,0.00,782.0,meteohub,2013-09-26 17:32:00,
2013-09-26 13:37:00,73.2,59.4,29.98,ENE,78,1.0,3.0,62,0.00,,,0.00,819.0,meteohub,2013-09-26 17:37:00,
2013-09-26 13:42:00,74.1,60.3,29.98,ESE,114,0.0,3.0,62,0.00,,,0.00,821.0,meteohub,2013-09-26 17:42:00,
2013-09-26 13:47:00,74.5,60.1,29.98,ENE,70,0.0,3.0,61,0.00,,,0.00,708.0,meteohub,2013-09-26 17:47:00,
2013-09-26 13:52:00,75.0,60.3,29.98,East,92,0.0,3.0,60,0.00,,,0.00,786.0,meteohub,2013-09-26 17:52:00,
2013-09-26 13:57:00,75.0,57.7,29.98,South,189,2.0,3.0,55,0.00,,,0.00,766.0,meteohub,2013-09-26 17:57:00,
2013-09-26 14:02:00,75.2,57.9,29.98,East,79,1.0,5.0,55,0.00,,,0.00,777.0,meteohub,2013-09-26 18:02:00,
2013-09-26 14:07:00,74.8,58.6,29.98,West,269,1.0,5.0,57,0.00,,,0.00,759.0,meteohub,2013-09-26 18:07:00,
2013-09-26 14:12:00,75.0,59.2,29.97,East,101,0.0,7.0,58,0.00,,,0.00,737.0,meteohub,2013-09-26 18:12:00,
2013-09-26 14:17:00,75.6,57.7,29.98,ENE,66,1.0,7.0,54,0.00,,,0.00,738.0,meteohub,2013-09-26 18:17:00,
2013-09-26 14:22:00,75.4,58.1,29.97,NNE,19,1.0,4.0,55,0.00,,,0.00,735.0,meteohub,2013-09-26 18:22:00,
2013-09-26 14:27:00,75.0,56.1,29.97,SE,146,1.0,4.0,52,0.00,,,0.00,722.0,meteohub,2013-09-26 18:27:00,
2013-09-26 14:32:00,75.0,57.7,29.98,ESE,118,2.0,4.0,55,0.00,,,0.00,719.0,meteohub,2013-09-26 18:32:00,
2013-09-26 14:37:00,74.8,57.0,29.97,NE,54,0.0,6.0,54,0.00,,,0.00,708.0,meteohub,2013-09-26 18:37:00,
2013-09-26 14:42:00,75.2,59.4,29.97,ENE,78,2.0,8.0,58,0.00,,,0.00,714.0,meteohub,2013-09-26 18:42:00,
2013-09-26 14:47:00,75.2,54.7,29.97,NE,46,1.0,8.0,49,0.00,,,0.00,719.0,meteohub,2013-09-26 18:47:00,
2013-09-26 14:52:00,75.4,55.9,29.97,SSE,163,2.0,8.0,51,0.00,,,0.00,735.0,meteohub,2013-09-26 18:52:00,
2013-09-26 14:57:00,75.6,56.1,29.97,SE,132,1.0,8.0,51,0.00,,,0.00,759.0,meteohub,2013-09-26 18:57:00,
2013-09-26 15:02:00,75.7,58.5,29.97,ENE,60,0.0,8.0,55,0.00,,,0.00,754.0,meteohub,2013-09-26 19:02:00,
2013-09-26 15:07:00,76.3,58.5,29.97,ESE,110,1.0,4.0,54,0.00,,,0.00,629.0,meteohub,2013-09-26 19:07:00,
2013-09-26 15:12:00,75.0,57.7,29.97,ESE,105,0.0,7.0,55,0.00,,,0.00,703.0,meteohub,2013-09-26 19:12:00,
2013-09-26 15:17:00,75.0,57.7,29.97,ESE,110,0.0,7.0,55,0.00,,,0.00,654.0,meteohub,2013-09-26 19:17:00,
2013-09-26 15:22:00,75.4,58.1,29.97,SE,142,2.0,4.0,55,0.00,,,0.00,624.0,meteohub,2013-09-26 19:22:00,
2013-09-26 15:27:00,75.6,59.2,29.97,NE,51,1.0,4.0,57,0.00,,,0.00,561.0,meteohub,2013-09-26 19:27:00,
2013-09-26 15:32:00,74.5,57.2,29.97,SW,227,4.0,4.0,55,0.00,,,0.00,612.0,meteohub,2013-09-26 19:32:00,
2013-09-26 15:37:00,75.0,59.7,29.97,SE,142,1.0,6.0,59,0.00,,,0.00,596.0,meteohub,2013-09-26 19:37:00,
2013-09-26 15:42:00,74.7,56.5,29.97,ESE,106,3.0,6.0,53,0.00,,,0.00,580.0,meteohub,2013-09-26 19:42:00,
2013-09-26 15:47:00,74.8,56.5,29.97,NE,39,0.0,6.0,53,0.00,,,0.00,568.0,meteohub,2013-09-26 19:47:00,
2013-09-26 15:52:00,75.0,57.2,29.97,NNE,31,1.0,4.0,54,0.00,,,0.00,555.0,meteohub,2013-09-26 19:52:00,
2013-09-26 15:57:00,75.0,55.6,29.97,WNW,300,1.0,4.0,51,0.00,,,0.00,541.0,meteohub,2013-09-26 19:57:00,
2013-09-26 16:02:00,73.6,58.8,29.97,South,170,0.0,4.0,60,0.00,,,0.00,527.0,meteohub,2013-09-26 20:02:00,
2013-09-26 16:07:00,74.7,57.9,29.97,WSW,247,4.0,4.0,56,0.00,,,0.00,519.0,meteohub,2013-09-26 20:07:00,
2013-09-26 16:12:00,74.7,56.8,29.98,NNE,14,2.0,5.0,54,0.00,,,0.00,504.0,meteohub,2013-09-26 20:12:00,
2013-09-26 16:17:00,74.8,58.6,29.97,East,82,0.0,5.0,57,0.00,,,0.00,489.0,meteohub,2013-09-26 20:17:00,
2013-09-26 16:22:00,75.0,58.3,29.97,East,86,1.0,5.0,56,0.00,,,0.00,471.0,meteohub,2013-09-26 20:22:00,
2013-09-26 16:27:00,73.9,60.1,29.98,South,178,1.0,5.0,62,0.00,,,0.00,457.0,meteohub,2013-09-26 20:27:00,
2013-09-26 16:32:00,73.9,57.7,29.98,SSE,157,0.0,6.0,57,0.00,,,0.00,443.0,meteohub,2013-09-26 20:32:00,
2013-09-26 16:37:00,73.9,55.8,29.98,ENE,73,0.0,6.0,53,0.00,,,0.00,422.0,meteohub,2013-09-26 20:37:00,
2013-09-26 16:42:00,74.5,58.8,29.97,SW,215,0.0,5.0,58,0.00,,,0.00,404.0,meteohub,2013-09-26 20:42:00,
2013-09-26 16:47:00,74.8,58.6,29.97,SW,215,0.0,5.0,57,0.00,,,0.00,309.0,meteohub,2013-09-26 20:47:00,
2013-09-26 16:52:00,74.5,58.3,29.97,ENE,77,0.0,4.0,57,0.00,,,0.00,383.0,meteohub,2013-09-26 20:52:00,
2013-09-26 16:57:00,74.1,57.4,29.98,ESE,111,0.0,4.0,56,0.00,,,0.00,353.0,meteohub,2013-09-26 20:57:00,
2013-09-26 17:02:00,73.6,57.9,29.98,ESE,111,0.0,3.0,58,0.00,,,0.00,357.0,meteohub,2013-09-26 21:02:00,
2013-09-26 17:07:00,72.9,55.8,29.98,ENE,70,0.0,3.0,55,0.00,,,0.00,345.0,meteohub,2013-09-26 21:07:00,
2013-09-26 17:12:00,73.0,56.8,29.98,ENE,70,0.0,1.0,57,0.00,,,0.00,322.0,meteohub,2013-09-26 21:12:00,
2013-09-26 17:17:00,72.3,56.3,29.98,ENE,57,0.0,3.0,57,0.00,,,0.00,299.0,meteohub,2013-09-26 21:17:00,
2013-09-26 17:22:00,71.8,58.1,29.98,NE,56,0.0,3.0,62,0.00,,,0.00,104.0,meteohub,2013-09-26 21:22:00,
2013-09-26 17:27:00,70.5,56.8,29.98,NE,52,0.0,3.0,62,0.00,,,0.00,56.0,meteohub,2013-09-26 21:27:00,
2013-09-26 17:32:00,69.4,57.2,29.98,NE,52,0.0,4.0,65,0.00,,,0.00,158.0,meteohub,2013-09-26 21:32:00,
2013-09-26 17:37:00,68.9,58.3,29.99,NE,52,0.0,4.0,69,0.00,,,0.00,232.0,meteohub,2013-09-26 21:37:00,
2013-09-26 17:42:00,68.7,58.5,29.99,NE,52,0.0,0.0,70,0.00,,,0.00,213.0,meteohub,2013-09-26 21:42:00,
2013-09-26 17:47:00,68.5,59.2,29.99,NE,51,0.0,0.0,72,0.00,,,0.00,190.0,meteohub,2013-09-26 21:47:00,
2013-09-26 17:52:00,67.8,58.5,29.99,NE,52,0.0,0.0,72,0.00,,,0.00,167.0,meteohub,2013-09-26 21:52:00,
2013-09-26 17:57:00,67.6,59.0,29.99,NE,52,0.0,0.0,74,0.00,,,0.00,51.0,meteohub,2013-09-26 21:57:00,
2013-09-26 18:02:00,67.5,59.2,29.99,NE,52,0.0,0.0,75,0.00,,,0.00,74.0,meteohub,2013-09-26 22:02:00,
2013-09-26 18:07:00,67.1,59.4,29.99,NE,52,0.0,0.0,76,0.00,,,0.00,39.0,meteohub,2013-09-26 22:07:00,
2013-09-26 18:12:00,66.6,59.5,29.99,NE,52,0.0,1.0,78,0.00,,,0.00,23.0,meteohub,2013-09-26 22:12:00,
2013-09-26 18:17:00,66.4,59.4,29.99,NE,52,0.0,1.0,78,0.00,,,0.00,18.0,meteohub,2013-09-26 22:17:00,
2013-09-26 18:22:00,65.8,58.8,29.99,NE,52,0.0,1.0,78,0.00,,,0.00,19.0,meteohub,2013-09-26 22:22:00,
2013-09-26 18:27:00,65.5,58.8,29.99,NE,51,0.0,1.0,79,0.00,,,0.00,19.0,meteohub,2013-09-26 22:27:00,
2013-09-26 18:32:00,64.9,58.6,29.99,NE,52,0.0,0.0,80,0.00,,,0.00,18.0,meteohub,2013-09-26 22:32:00,
2013-09-26 18:37:00,64.6,58.3,30.00,NE,52,0.0,0.0,80,0.00,,,0.00,14.0,meteohub,2013-09-26 22:37:00,
2013-09-26 18:40:00,64.2,58.3,30.00,NE,52,0.0,0.0,81,0.00,,,0.00,14.0,meteohub,2013-09-26 22:40:00,
2013-09-26 18:42:00,64.0,58.1,30.00,NE,52,0.0,0.0,81,0.00,,,0.00,14.0,meteohub,2013-09-26 22:42:00,
2013-09-26 18:47:00,63.9,57.9,30.00,NE,52,0.0,0.0,81,0.00,,,0.00,12.0,meteohub,2013-09-26 22:47:00,
2013-09-26 18:55:00,63.1,57.9,30.00,NE,52,0.0,0.0,83,0.00,,,0.00,7.0,meteohub,2013-09-26 22:55:00,
2013-09-26 19:00:00,62.6,57.7,30.00,NE,52,0.0,0.0,84,0.00,,,0.00,5.0,meteohub,2013-09-26 23:00:00,
2013-09-26 19:05:00,62.2,57.7,30.00,NE,52,0.0,0.0,85,0.00,,,0.00,0.0,meteohub,2013-09-26 23:05:00,
2013-09-26 19:10:00,62.1,57.6,30.00,NE,52,0.0,0.0,85,0.00,,,0.00,0.0,meteohub,2013-09-26 23:10:00,
2013-09-26 19:15:00,61.5,57.4,30.01,NE,52,0.0,0.0,86,0.00,,,0.00,0.0,meteohub,2013-09-26 23:15:00,
2013-09-26 19:20:00,61.3,57.2,30.01,NE,51,0.0,0.0,86,0.00,,,0.00,0.0,meteohub,2013-09-26 23:20:00,
2013-09-26 19:25:00,61.2,57.2,30.01,NE,52,0.0,0.0,87,0.00,,,0.00,0.0,meteohub,2013-09-26 23:25:00,
2013-09-26 19:30:00,61.0,57.0,30.01,NE,51,0.0,0.0,87,0.00,,,0.00,0.0,meteohub,2013-09-26 23:30:00,
2013-09-26 19:35:00,60.6,57.0,30.01,NE,52,0.0,0.0,88,0.00,,,0.00,0.0,meteohub,2013-09-26 23:35:00,
2013-09-26 19:37:00,60.4,56.8,30.01,NE,52,0.0,0.0,88,0.00,,,0.00,0.0,meteohub,2013-09-26 23:37:00,
2013-09-26 19:42:00,60.3,57.0,30.01,NE,52,0.0,0.0,89,0.00,,,0.00,0.0,meteohub,2013-09-26 23:42:00,
2013-09-26 19:47:00,60.1,56.8,30.02,NE,51,0.0,0.0,89,0.00,,,0.00,0.0,meteohub,2013-09-26 23:47:00,
2013-09-26 19:52:00,59.7,56.5,30.02,NE,51,0.0,0.0,89,0.00,,,0.00,0.0,meteohub,2013-09-26 23:52:00,
2013-09-26 19:57:00,59.4,56.5,30.02,NE,52,0.0,0.0,90,0.00,,,0.00,0.0,meteohub,2013-09-26 23:57:00,
2013-09-26 20:02:00,59.4,56.7,30.02,NE,52,0.0,0.0,91,0.00,,,0.00,0.0,meteohub,2013-09-27 00:02:00,
2013-09-26 20:07:00,59.4,57.0,30.02,NE,52,0.0,0.0,92,0.00,,,0.00,0.0,meteohub,2013-09-27 00:07:00,
2013-09-26 20:12:00,59.4,57.0,30.03,NE,52,0.0,0.0,92,0.00,,,0.00,0.0,meteohub,2013-09-27 00:12:00,
2013-09-26 20:17:00,59.4,57.0,30.03,NE,52,0.0,0.0,92,0.00,,,0.00,0.0,meteohub,2013-09-27 00:17:00,
2013-09-26 20:22:00,59.4,57.0,30.03,NE,52,0.0,0.0,92,0.00,,,0.00,0.0,meteohub,2013-09-27 00:22:00,
2013-09-26 20:27:00,59.2,56.8,30.03,NE,52,0.0,0.0,92,0.00,,,0.00,0.0,meteohub,2013-09-27 00:27:00,
2013-09-26 20:32:00,59.0,56.7,30.03,NE,52,0.0,0.0,92,0.00,,,0.00,0.0,meteohub,2013-09-27 00:32:00,
2013-09-26 20:37:00,58.8,56.5,30.03,NE,52,0.0,0.0,92,0.00,,,0.00,0.0,meteohub,2013-09-27 00:37:00,
2013-09-26 20:42:00,58.6,56.3,30.04,NE,51,0.0,0.0,92,0.00,,,0.00,0.0,meteohub,2013-09-27 00:42:00,
2013-09-26 20:47:00,58.5,56.5,30.04,NE,52,0.0,0.0,93,0.00,,,0.00,0.0,meteohub,2013-09-27 00:47:00,
2013-09-26 20:52:00,58.3,56.3,30.04,NE,52,0.0,0.0,93,0.00,,,0.00,0.0,meteohub,2013-09-27 00:52:00,
2013-09-26 20:53:00,58.3,56.3,30.04,NE,52,0.0,0.0,93,0.00,,,0.00,0.0,meteohub,2013-09-27 00:53:00,
2013-09-26 20:57:00,58.1,56.1,30.04,NE,52,0.0,0.0,93,0.00,,,0.00,0.0,meteohub,2013-09-27 00:57:00,
2013-09-26 21:02:00,57.9,56.1,30.04,NE,52,0.0,0.0,94,0.00,,,0.00,0.0,meteohub,2013-09-27 01:02:00,
2013-09-26 21:07:00,57.9,56.1,30.04,NE,52,0.0,0.0,94,0.00,,,0.00,0.0,meteohub,2013-09-27 01:07:00,
2013-09-26 21:12:00,57.9,56.1,30.04,NE,52,0.0,0.0,94,0.00,,,0.00,0.0,meteohub,2013-09-27 01:12:00,
2013-09-26 21:17:00,57.9,56.1,30.04,NE,52,0.0,0.0,94,0.00,,,0.00,0.0,meteohub,2013-09-27 01:17:00,
2013-09-26 21:22:00,57.7,55.8,30.04,NE,52,0.0,0.0,93,0.00,,,0.00,0.0,meteohub,2013-09-27 01:22:00,
2013-09-26 21:27:00,57.6,55.6,30.05,NE,52,0.0,0.0,93,0.00,,,0.00,0.0,meteohub,2013-09-27 01:27:00,
2013-09-26 21:32:00,57.4,55.6,30.05,NE,52,0.0,0.0,94,0.00,,,0.00,0.0,meteohub,2013-09-27 01:32:00,
2013-09-26 21:37:00,57.2,55.4,30.05,NE,52,0.0,0.0,94,0.00,,,0.00,0.0,meteohub,2013-09-27 01:37:00,
2013-09-26 21:42:00,57.0,55.2,30.05,NE,52,0.0,0.0,94,0.00,,,0.00,0.0,meteohub,2013-09-27 01:42:00,
2013-09-26 21:47:00,56.8,55.2,30.05,NE,51,0.0,0.0,94,0.00,,,0.00,0.0,meteohub,2013-09-27 01:47:00,
2013-09-26 21:52:00,56.7,55.2,30.05,NE,52,0.0,0.0,95,0.00,,,0.00,0.0,meteohub,2013-09-27 01:52:00,
2013-09-26 21:57:00,56.5,55.0,30.06,NE,52,0.0,0.0,95,0.00,,,0.00,0.0,meteohub,2013-09-27 01:57:00,
2013-09-26 22:02:00,56.3,54.9,30.06,NE,51,0.0,0.0,95,0.00,,,0.00,0.0,meteohub,2013-09-27 02:02:00,
2013-09-26 22:07:00,56.1,54.7,30.06,NE,52,0.0,0.0,95,0.00,,,0.00,0.0,meteohub,2013-09-27 02:07:00,
2013-09-26 22:12:00,56.1,55.0,30.06,NE,52,0.0,0.0,96,0.00,,,0.00,0.0,meteohub,2013-09-27 02:12:00,
2013-09-26 22:17:00,55.9,54.9,30.06,NE,52,0.0,0.0,96,0.00,,,0.00,0.0,meteohub,2013-09-27 02:17:00,
2013-09-26 22:22:00,55.9,54.9,30.06,NE,52,0.0,0.0,96,0.00,,,0.00,0.0,meteohub,2013-09-27 02:22:00,
2013-09-26 22:27:00,55.8,54.7,30.06,NE,52,0.0,0.0,96,0.00,,,0.00,0.0,meteohub,2013-09-27 02:27:00,
2013-09-26 22:29:00,55.6,54.5,30.06,NE,52,0.0,0.0,96,0.00,,,0.00,0.0,meteohub,2013-09-27 02:29:00,
2013-09-26 22:32:00,55.6,54.5,30.06,NE,52,0.0,0.0,96,0.00,,,0.00,0.0,meteohub,2013-09-27 02:32:00,
2013-09-26 22:37:00,55.6,54.5,30.06,NE,52,0.0,0.0,96,0.00,,,0.00,0.0,meteohub,2013-09-27 02:37:00,
2013-09-26 22:44:00,55.2,54.1,30.06,NE,52,0.0,0.0,96,0.00,,,0.00,0.0,meteohub,2013-09-27 02:44:00,
2013-09-26 22:49:00,55.2,54.1,30.06,NE,52,0.0,0.0,96,0.00,,,0.00,0.0,meteohub,2013-09-27 02:49:00,
2013-09-26 22:54:00,55.0,54.0,30.06,NE,52,0.0,0.0,96,0.00,,,0.00,0.0,meteohub,2013-09-27 02:54:00,
2013-09-26 22:59:00,55.0,54.1,30.06,NE,52,0.0,0.0,97,0.00,,,0.00,0.0,meteohub,2013-09-27 02:59:00,
2013-09-26 23:04:00,54.9,53.8,30.06,NE,52,0.0,0.0,96,0.00,,,0.00,0.0,meteohub,2013-09-27 03:04:00,
2013-09-26 23:09:00,54.9,53.8,30.06,NE,52,0.0,0.0,96,0.00,,,0.00,0.0,meteohub,2013-09-27 03:09:00,
2013-09-26 23:14:00,54.7,53.6,30.07,NE,52,0.0,0.0,96,0.00,,,0.00,0.0,meteohub,2013-09-27 03:14:00,
2013-09-26 23:19:00,54.7,53.8,30.07,NE,52,0.0,0.0,97,0.00,,,0.00,0.0,meteohub,2013-09-27 03:19:00,
2013-09-26 23:24:00,54.7,53.8,30.07,NE,52,0.0,0.0,97,0.00,,,0.00,0.0,meteohub,2013-09-27 03:24:00,
2013-09-26 23:30:00,54.5,53.6,30.07,NE,52,0.0,0.0,97,0.00,,,0.00,0.0,meteohub,2013-09-27 03:30:00,
2013-09-26 23:35:00,54.3,53.4,30.07,NE,52,0.0,0.0,97,0.00,,,0.00,0.0,meteohub,2013-09-27 03:35:00,
2013-09-26 23:40:00,54.3,53.4,30.07,NE,52,0.0,0.0,97,0.00,,,0.00,0.0,meteohub,2013-09-27 03:40:00,
2013-09-26 23:45:00,54.1,53.2,30.07,NE,52,0.0,0.0,97,0.00,,,0.00,0.0,meteohub,2013-09-27 03:45:00,
2013-09-26 23:50:00,54.0,53.1,30.07,NE,52,0.0,0.0,97,0.00,,,0.00,0.0,meteohub,2013-09-27 03:50:00,
2013-09-26 23:55:00,54.0,53.1,30.07,NE,52,0.0,0.0,97,0.00,,,0.00,0.0,meteohub,2013-09-27 03:55:00,